createdAt,value
2023-04-22T00:00:44.561Z,14.70
2023-04-22T00:03:11.519Z,14.50
2023-04-22T00:05:38.465Z,14.80
2023-04-22T00:08:05.865Z,15.00
2023-04-22T00:10:32.671Z,14.70
2023-04-22T00:12:59.471Z,14.60
2023-04-22T00:15:27.028Z,14.80
2023-04-22T00:17:54.059Z,14.50
2023-04-22T00:20:23.947Z,14.50
2023-04-22T00:22:50.709Z,14.50
2023-04-22T00:25:17.855Z,14.60
2023-04-22T00:27:45.304Z,14.50
2023-04-22T00:30:12.576Z,14.60
2023-04-22T00:32:39.565Z,14.50
2023-04-22T00:35:06.993Z,14.20
2023-04-22T00:37:34.107Z,14.50
2023-04-22T00:40:01.166Z,14.20
2023-04-22T00:42:28.693Z,14.00
2023-04-22T00:44:56.037Z,14.20
2023-04-22T00:47:26.788Z,14.20
2023-04-22T00:49:54.940Z,14.20
2023-04-22T00:52:22.245Z,14.20
2023-04-22T00:54:49.815Z,14.10
2023-04-22T00:57:17.461Z,13.80
2023-04-22T00:59:44.744Z,14.00
2023-04-22T01:02:12.420Z,13.60
2023-04-22T01:04:39.800Z,13.70
2023-04-22T01:07:06.599Z,13.80
2023-04-22T01:09:33.379Z,13.60
2023-04-22T01:12:01.408Z,13.70
2023-04-22T01:14:28.895Z,13.50
2023-04-22T01:16:56.637Z,13.50
2023-04-22T01:19:24.282Z,13.70
2023-04-22T01:21:52.034Z,13.60
2023-04-22T01:24:19.511Z,13.70
2023-04-22T01:26:47.842Z,13.50
2023-04-22T01:29:16.259Z,13.90
2023-04-22T01:31:43.348Z,13.50
2023-04-22T01:34:11.259Z,13.60
2023-04-22T01:36:38.644Z,13.60
2023-04-22T01:39:05.382Z,13.30
2023-04-22T01:41:32.334Z,13.40
2023-04-22T01:44:02.730Z,13.30
2023-04-22T01:46:29.670Z,13.40
2023-04-22T01:48:56.459Z,13.60
2023-04-22T01:51:26.108Z,13.40
2023-04-22T01:53:53.057Z,13.30
2023-04-22T01:56:19.766Z,13.30
2023-04-22T01:58:46.824Z,13.60
2023-04-22T02:01:13.666Z,13.40
2023-04-22T02:03:40.448Z,13.20
2023-04-22T02:06:07.822Z,13.20
2023-04-22T02:08:34.688Z,13.60
2023-04-22T02:11:01.565Z,13.10
2023-04-22T02:13:39.227Z,13.40
2023-04-22T02:16:06.876Z,13.30
2023-04-22T02:18:34.509Z,13.40
2023-04-22T02:21:01.390Z,13.20
2023-04-22T02:23:28.852Z,13.50
2023-04-22T02:25:56.038Z,13.20
2023-04-22T02:28:23.075Z,13.30
2023-04-22T02:30:49.816Z,13.20
2023-04-22T02:33:17.096Z,13.20
2023-04-22T02:35:43.828Z,13.10
2023-04-22T02:38:11.227Z,13.40
2023-04-22T02:40:38.024Z,13.40
2023-04-22T02:43:05.108Z,13.10
2023-04-22T02:45:31.925Z,13.30
2023-04-22T02:47:59.366Z,13.30
2023-04-22T02:50:26.223Z,13.30
2023-04-22T02:52:53.130Z,13.10
2023-04-22T02:55:19.868Z,13.30
2023-04-22T02:57:47.241Z,13.10
2023-04-22T03:00:14.369Z,13.10
2023-04-22T03:02:41.157Z,13.20
2023-04-22T03:05:08.411Z,13.40
2023-04-22T03:07:35.337Z,13.20
2023-04-22T03:10:02.095Z,13.20
2023-04-22T03:12:29.010Z,13.10
2023-04-22T03:14:55.957Z,13.20
2023-04-22T03:17:22.848Z,13.30
2023-04-22T03:19:49.590Z,13.30
2023-04-22T03:22:16.714Z,13.20
2023-04-22T03:24:43.884Z,13.50
2023-04-22T03:27:11.160Z,13.30
2023-04-22T03:29:38.524Z,13.10
2023-04-22T03:32:05.788Z,13.10
2023-04-22T03:34:32.512Z,13.40
2023-04-22T03:36:59.174Z,13.60
2023-04-22T03:39:25.887Z,13.20
2023-04-22T03:41:52.774Z,13.50
2023-04-22T03:44:19.480Z,13.20
2023-04-22T03:46:46.207Z,13.30
2023-04-22T03:49:13.598Z,13.20
2023-04-22T03:51:40.534Z,13.20
2023-04-22T03:54:07.376Z,13.20
2023-04-22T03:56:34.205Z,13.20
2023-04-22T03:59:00.949Z,13.10
2023-04-22T04:01:27.869Z,13.20
2023-04-22T04:03:54.734Z,13.30
2023-04-22T04:06:21.813Z,13.40
2023-04-22T04:08:48.467Z,13.30
2023-04-22T04:11:15.212Z,13.20
2023-04-22T04:13:41.999Z,13.20
2023-04-22T04:16:08.751Z,13.40
2023-04-22T04:18:36.580Z,13.40
2023-04-22T04:21:03.483Z,13.20
2023-04-22T04:23:30.182Z,13.40
2023-04-22T04:25:57.365Z,13.20
2023-04-22T04:28:24.301Z,13.20
2023-04-22T04:30:54.189Z,13.40
2023-04-22T04:33:21.054Z,13.40
2023-04-22T04:35:48.050Z,13.10
2023-04-22T04:38:14.842Z,13.40
2023-04-22T04:40:43.573Z,13.10
2023-04-22T04:43:10.369Z,13.30
2023-04-22T04:45:37.774Z,13.30
2023-04-22T04:48:07.009Z,13.50
2023-04-22T04:50:33.774Z,13.30
2023-04-22T04:53:00.529Z,13.50
2023-04-22T04:55:27.309Z,13.20
2023-04-22T04:57:54.009Z,13.40
2023-04-22T05:00:20.798Z,13.20
2023-04-22T05:02:47.638Z,13.40
2023-04-22T05:05:14.418Z,13.50
2023-04-22T05:07:41.260Z,13.70
2023-04-22T05:10:08.623Z,13.40
2023-04-22T05:12:35.426Z,13.80
2023-04-22T05:15:02.835Z,13.50
2023-04-22T05:17:30.382Z,13.70
2023-04-22T05:19:57.109Z,13.50
2023-04-22T05:22:24.019Z,13.70
2023-04-22T05:24:50.765Z,13.60
2023-04-22T05:27:18.129Z,13.60
2023-04-22T05:29:44.844Z,13.70
2023-04-22T05:32:11.658Z,13.70
2023-04-22T05:34:38.497Z,13.50
2023-04-22T05:37:05.764Z,13.70
2023-04-22T05:39:32.703Z,13.80
2023-04-22T05:41:59.489Z,13.90
2023-04-22T05:44:26.260Z,14.00
2023-04-22T05:46:52.959Z,13.90
2023-04-22T05:49:19.645Z,13.90
2023-04-22T05:51:46.468Z,14.10
2023-04-22T05:54:13.194Z,13.90
2023-04-22T05:56:39.963Z,14.10
2023-04-22T05:59:06.677Z,14.00
2023-04-22T06:01:33.460Z,13.80
2023-04-22T06:04:00.523Z,13.90
2023-04-22T06:06:27.592Z,13.80
2023-04-22T06:08:54.481Z,13.80
2023-04-22T06:11:22.094Z,13.80
2023-04-22T06:13:48.870Z,13.80
2023-04-22T06:16:15.742Z,14.00
2023-04-22T06:18:43.629Z,14.00
2023-04-22T06:21:10.668Z,14.20
2023-04-22T06:23:37.468Z,14.30
2023-04-22T06:26:04.538Z,14.20
2023-04-22T06:28:31.220Z,14.60
2023-04-22T06:30:57.914Z,14.60
2023-04-22T06:33:24.621Z,14.70
2023-04-22T06:35:51.498Z,14.70
2023-04-22T06:38:18.214Z,15.00
2023-04-22T06:40:44.995Z,15.00
2023-04-22T06:43:11.706Z,15.10
2023-04-22T06:45:38.398Z,15.10
2023-04-22T06:48:05.225Z,15.10
2023-04-22T06:50:32.049Z,15.10
2023-04-22T06:52:58.826Z,15.40
2023-04-22T06:55:25.599Z,15.40
2023-04-22T06:57:52.362Z,15.50
2023-04-22T07:00:19.156Z,15.60
2023-04-22T07:02:45.936Z,15.60
2023-04-22T07:05:12.801Z,15.60
2023-04-22T07:07:39.475Z,15.80
2023-04-22T07:10:06.539Z,15.70
2023-04-22T07:12:33.367Z,15.70
2023-04-22T07:15:00.054Z,15.90
2023-04-22T07:17:26.798Z,16.00
2023-04-22T07:19:53.783Z,15.90
2023-04-22T07:22:20.820Z,16.00
2023-04-22T07:24:47.584Z,15.80
2023-04-22T07:27:14.466Z,16.20
2023-04-22T07:29:41.611Z,16.30
2023-04-22T07:32:08.969Z,16.30
2023-04-22T07:34:35.719Z,16.40
2023-04-22T07:37:02.723Z,16.50
2023-04-22T07:39:29.634Z,16.60
2023-04-22T07:41:56.965Z,16.70
2023-04-22T07:44:23.859Z,16.80
2023-04-22T07:46:50.773Z,16.80
2023-04-22T07:49:17.764Z,16.80
2023-04-22T07:51:44.961Z,17.00
2023-04-22T07:54:11.803Z,17.20
2023-04-22T07:56:38.611Z,17.10
2023-04-22T07:59:05.935Z,17.40
2023-04-22T08:01:34.046Z,17.30
2023-04-22T08:04:01.071Z,17.50
2023-04-22T08:06:28.182Z,17.70
2023-04-22T08:08:54.970Z,17.70
2023-04-22T08:11:21.971Z,18.00
2023-04-22T08:13:48.734Z,17.80
2023-04-22T08:16:15.946Z,18.00
2023-04-22T08:18:42.711Z,18.20
2023-04-22T08:21:09.465Z,18.20
2023-04-22T08:23:36.204Z,18.10
2023-04-22T08:26:04.585Z,18.30
2023-04-22T08:28:31.586Z,18.40
2023-04-22T08:30:58.433Z,18.50
2023-04-22T08:33:27.159Z,18.40
2023-04-22T08:35:54.194Z,18.30
2023-04-22T08:38:21.064Z,18.50
2023-04-22T08:40:48.415Z,18.90
2023-04-22T08:43:15.276Z,18.60
2023-04-22T08:45:42.583Z,18.80
2023-04-22T08:48:10.110Z,18.80
2023-04-22T08:50:40.952Z,18.70
2023-04-22T08:53:07.888Z,18.90
2023-04-22T08:55:36.078Z,19.00
2023-04-22T08:58:05.820Z,18.90
2023-04-22T09:00:34.565Z,19.10
2023-04-22T09:03:05.395Z,19.40
2023-04-22T09:05:38.609Z,19.20
2023-04-22T09:08:05.808Z,19.30
2023-04-22T09:10:34.220Z,19.40
2023-04-22T09:13:03.454Z,19.30
2023-04-22T09:15:30.309Z,19.60
2023-04-22T09:17:58.612Z,19.50
2023-04-22T09:20:29.479Z,19.50
2023-04-22T09:22:57.552Z,19.60
2023-04-22T09:25:26.745Z,19.60
2023-04-22T09:27:55.829Z,19.60
2023-04-22T09:30:29.650Z,19.70
2023-04-22T09:33:15.718Z,19.80
2023-04-22T09:35:43.456Z,19.60
2023-04-22T09:38:11.671Z,19.90
2023-04-22T09:40:41.712Z,20.00
2023-04-22T09:43:09.697Z,20.10
2023-04-22T09:45:41.411Z,20.30
2023-04-22T09:48:20.327Z,20.30
2023-04-22T09:50:49.683Z,20.40
2023-04-22T09:53:18.938Z,20.40
2023-04-22T09:55:55.703Z,20.30
2023-04-22T09:58:27.591Z,20.30
2023-04-22T10:00:56.872Z,20.30
2023-04-22T10:03:23.966Z,20.30
2023-04-22T10:05:51.043Z,20.40
2023-04-22T10:08:18.312Z,20.50
2023-04-22T10:10:45.363Z,20.60
2023-04-22T10:13:12.454Z,20.80
2023-04-22T10:15:40.614Z,20.90
2023-04-22T10:18:10.912Z,21.00
2023-04-22T10:20:41.187Z,21.00
2023-04-22T10:23:14.267Z,21.10
2023-04-22T10:25:41.763Z,21.20
2023-04-22T10:28:10.967Z,21.20
2023-04-22T10:30:39.485Z,21.40
2023-04-22T10:33:21.376Z,21.40
2023-04-22T10:36:10.598Z,21.50
2023-04-22T10:39:01.449Z,21.60
2023-04-22T10:41:35.738Z,21.70
2023-04-22T10:44:06.711Z,21.70
2023-04-22T10:46:45.330Z,21.80
2023-04-22T10:49:18.754Z,21.80
2023-04-22T10:51:59.524Z,21.80
2023-04-22T10:54:28.095Z,21.90
2023-04-22T10:57:08.580Z,21.90
2023-04-22T10:59:42.620Z,22.00
2023-04-22T11:02:12.087Z,22.00
2023-04-22T11:04:39.618Z,22.10
2023-04-22T11:07:20.533Z,22.10
2023-04-22T11:09:51.251Z,22.10
2023-04-22T11:12:36.058Z,22.20
2023-04-22T11:15:09.578Z,22.20
2023-04-22T11:17:37.626Z,22.20
2023-04-22T11:20:07.156Z,22.10
2023-04-22T11:22:38.243Z,22.10
2023-04-22T11:25:06.261Z,22.00
2023-04-22T11:27:33.107Z,21.80
2023-04-22T11:30:20.037Z,21.80
2023-04-22T11:32:52.190Z,21.80
2023-04-22T11:35:23.544Z,21.80
2023-04-22T11:37:52.673Z,21.90
2023-04-22T11:40:30.922Z,21.90
2023-04-22T11:43:00.996Z,22.00
2023-04-22T11:45:29.741Z,22.00
2023-04-22T11:47:56.713Z,22.00
2023-04-22T11:50:31.124Z,22.10
2023-04-22T11:53:03.029Z,22.10
2023-04-22T11:55:31.933Z,22.20
2023-04-22T11:58:10.941Z,22.30
2023-04-22T12:00:47.661Z,22.40
2023-04-22T12:03:25.956Z,22.50
2023-04-22T12:05:55.343Z,22.50
2023-04-22T12:08:33.453Z,22.50
2023-04-22T12:11:09.331Z,22.50
2023-04-22T12:13:40.305Z,22.60
2023-04-22T12:16:14.863Z,22.60
2023-04-22T12:18:55.506Z,22.60
2023-04-22T12:21:24.740Z,22.60
2023-04-22T12:23:54.725Z,22.70
2023-04-22T12:26:27.595Z,22.90
2023-04-22T12:28:56.188Z,22.90
2023-04-22T12:31:23.125Z,22.80
2023-04-22T12:33:50.307Z,22.70
2023-04-22T12:36:19.149Z,22.80
2023-04-22T12:38:46.075Z,22.90
2023-04-22T12:41:12.823Z,22.90
2023-04-22T12:43:39.883Z,22.90
2023-04-22T12:46:08.077Z,22.80
2023-04-22T12:48:37.222Z,22.80
2023-04-22T12:51:05.241Z,22.80
2023-04-22T12:53:32.058Z,22.80
2023-04-22T12:55:59.195Z,22.90
2023-04-22T12:58:26.433Z,23.00
2023-04-22T13:00:53.336Z,23.00
2023-04-22T13:03:20.245Z,23.10
2023-04-22T13:05:47.221Z,23.20
2023-04-22T13:08:13.894Z,23.40
2023-04-22T13:10:40.754Z,23.50
2023-04-22T13:15:38.834Z,23.50
2023-04-22T13:18:06.049Z,23.50
2023-04-22T13:20:33.118Z,23.30
2023-04-22T13:22:59.812Z,23.30
2023-04-22T13:25:26.574Z,23.40
2023-04-22T13:27:53.332Z,23.30
2023-04-22T13:30:20.177Z,23.30
2023-04-22T13:32:46.933Z,23.40
2023-04-22T13:35:13.778Z,23.50
2023-04-22T13:37:40.711Z,23.40
2023-04-22T13:40:08.627Z,23.50
2023-04-22T13:42:35.514Z,23.60
2023-04-22T13:45:02.282Z,23.60
2023-04-22T13:47:29.403Z,23.50
2023-04-22T13:49:57.775Z,23.50
2023-04-22T13:52:24.667Z,23.50
2023-04-22T13:54:51.475Z,23.50
2023-04-22T13:57:18.744Z,23.40
2023-04-22T13:59:45.431Z,23.40
2023-04-22T14:02:12.218Z,23.50
2023-04-22T14:04:38.977Z,23.40
2023-04-22T14:07:05.802Z,23.30
2023-04-22T14:09:32.597Z,23.20
2023-04-22T14:11:59.427Z,23.30
2023-04-22T14:14:26.194Z,23.30
2023-04-22T14:16:52.994Z,23.40
2023-04-22T14:19:21.218Z,23.30
2023-04-22T14:21:47.856Z,23.20
2023-04-22T14:24:14.718Z,23.10
2023-04-22T14:26:41.562Z,23.00
2023-04-22T14:29:08.592Z,22.70
2023-04-22T14:31:35.386Z,22.60
2023-04-22T14:34:02.285Z,22.50
2023-04-22T14:36:29.051Z,22.40
2023-04-22T14:38:56.361Z,22.30
2023-04-22T14:41:23.303Z,22.00
2023-04-22T14:43:50.209Z,21.70
2023-04-22T14:46:16.982Z,21.40
2023-04-22T14:48:44.091Z,21.30
2023-04-22T14:51:11.681Z,21.10
2023-04-22T14:53:38.551Z,21.10
2023-04-22T14:56:06.454Z,21.10
2023-04-22T14:58:33.190Z,21.10
2023-04-22T15:01:00.556Z,21.10
2023-04-22T15:03:27.810Z,21.10
2023-04-22T15:05:55.511Z,21.20
2023-04-22T15:08:25.070Z,21.20
2023-04-22T15:10:51.982Z,21.20
2023-04-22T15:13:19.819Z,21.10
2023-04-22T15:15:47.069Z,21.10
2023-04-22T15:18:14.030Z,21.00
2023-04-22T15:20:40.836Z,20.90
2023-04-22T15:23:07.616Z,20.80
2023-04-22T15:25:35.013Z,21.00
2023-04-22T15:28:01.768Z,21.00
2023-04-22T15:30:28.566Z,21.10
2023-04-22T15:32:55.289Z,21.10
2023-04-22T15:35:26.455Z,21.10
2023-04-22T15:37:54.153Z,21.10
2023-04-22T15:40:20.981Z,21.10
2023-04-22T15:42:47.839Z,21.10
2023-04-22T15:45:14.678Z,21.10
2023-04-22T15:47:41.774Z,21.10
2023-04-22T15:50:10.165Z,21.00
2023-04-22T15:52:38.299Z,21.00
2023-04-22T15:55:08.334Z,21.00
2023-04-22T15:57:35.836Z,21.00
2023-04-22T16:00:11.779Z,21.00
2023-04-22T16:02:41.595Z,21.00
2023-04-22T16:05:09.102Z,20.90
2023-04-22T16:07:35.851Z,20.90
2023-04-22T16:10:02.790Z,20.90
2023-04-22T16:12:30.945Z,20.90
2023-04-22T16:14:58.774Z,20.90
2023-04-22T16:17:26.187Z,20.90
2023-04-22T16:19:52.942Z,20.90
2023-04-22T16:22:20.096Z,20.80
2023-04-22T16:24:46.783Z,20.80
2023-04-22T16:27:16.412Z,20.70
2023-04-22T16:29:43.937Z,20.80
2023-04-22T16:32:11.254Z,20.80
2023-04-22T16:34:39.032Z,20.90
2023-04-22T16:37:06.221Z,20.90
2023-04-22T16:39:33.384Z,20.90
2023-04-22T16:42:00.199Z,20.80
2023-04-22T16:44:26.951Z,20.80
2023-04-22T16:46:53.843Z,20.80
2023-04-22T16:49:21.073Z,20.70
2023-04-22T16:51:48.353Z,20.80
2023-04-22T16:54:15.056Z,20.70
2023-04-22T16:56:41.862Z,20.70
2023-04-22T16:59:08.604Z,20.70
2023-04-22T17:01:35.449Z,20.70
2023-04-22T17:04:03.060Z,20.70
2023-04-22T17:06:29.923Z,20.70
2023-04-22T17:08:56.598Z,20.60
2023-04-22T17:11:24.098Z,20.50
2023-04-22T17:13:51.527Z,20.40
2023-04-22T17:16:18.805Z,20.30
2023-04-22T17:18:46.992Z,20.30
2023-04-22T17:21:14.119Z,20.30
2023-04-22T17:23:40.850Z,20.20
2023-04-22T17:26:07.794Z,20.20
2023-04-22T17:28:34.677Z,20.20
2023-04-22T17:31:03.772Z,20.10
2023-04-22T17:33:31.222Z,20.10
2023-04-22T17:35:58.007Z,20.10
2023-04-22T17:38:24.738Z,20.10
2023-04-22T17:40:51.499Z,20.10
2023-04-22T17:43:18.296Z,20.10
2023-04-22T17:45:45.029Z,20.00
2023-04-22T17:48:11.705Z,19.90
2023-04-22T17:50:38.615Z,19.90
2023-04-22T17:53:05.889Z,19.90
2023-04-22T17:55:35.362Z,19.80
2023-04-22T17:58:03.016Z,19.80
2023-04-22T18:00:30.651Z,19.70
2023-04-22T18:02:58.047Z,19.70
2023-04-22T18:05:25.246Z,19.60
2023-04-22T18:07:52.464Z,19.60
2023-04-22T18:10:19.273Z,19.60
2023-04-22T18:12:45.969Z,19.60
2023-04-22T18:15:12.644Z,19.60
2023-04-22T18:17:39.312Z,19.50
2023-04-22T18:20:17.208Z,19.60
2023-04-22T18:22:46.619Z,19.60
2023-04-22T18:25:13.433Z,19.60
2023-04-22T18:27:40.718Z,19.50
2023-04-22T18:30:07.969Z,19.50
2023-04-22T18:32:35.755Z,19.50
2023-04-22T18:35:02.575Z,19.50
2023-04-22T18:37:30.918Z,19.50
2023-04-22T18:39:57.743Z,19.40
2023-04-22T18:42:24.635Z,19.40
2023-04-22T18:44:51.432Z,19.40
2023-04-22T18:47:18.155Z,19.40
2023-04-22T18:49:45.335Z,19.40
2023-04-22T18:52:12.350Z,19.30
2023-04-22T18:54:39.597Z,19.40
2023-04-22T18:57:07.193Z,19.30
2023-04-22T18:59:34.069Z,19.40
2023-04-22T19:02:00.950Z,19.40
2023-04-22T19:04:27.832Z,19.40
2023-04-22T19:06:56.901Z,19.40
2023-04-22T19:09:24.048Z,19.40
2023-04-22T19:11:50.833Z,19.40
2023-04-22T19:14:17.642Z,19.40
2023-04-22T19:16:44.383Z,19.40
2023-04-22T19:19:12.135Z,19.40
2023-04-22T19:21:43.547Z,19.40
2023-04-22T19:24:10.842Z,19.40
2023-04-22T19:26:37.711Z,19.40
2023-04-22T19:29:04.513Z,19.30
2023-04-22T19:31:31.463Z,19.30
2023-04-22T19:33:58.325Z,19.40
2023-04-22T19:36:25.553Z,19.30
2023-04-22T19:38:52.299Z,19.30
2023-04-22T19:41:19.062Z,19.30
2023-04-22T19:43:45.987Z,19.20
2023-04-22T19:46:12.751Z,19.30
2023-04-22T19:48:40.126Z,19.20
2023-04-22T19:51:06.985Z,19.20
2023-04-22T19:53:34.851Z,19.20
2023-04-22T19:56:02.495Z,19.20
2023-04-22T19:58:30.591Z,19.10
2023-04-22T20:00:57.637Z,19.10
2023-04-22T20:03:25.016Z,19.10
2023-04-22T20:05:53.249Z,19.00
2023-04-22T20:08:21.182Z,19.10
2023-04-22T20:10:49.516Z,19.20
2023-04-22T20:13:17.211Z,19.00
2023-04-22T20:15:44.580Z,19.00
2023-04-22T20:18:12.141Z,19.00
2023-04-22T20:20:40.698Z,19.20
2023-04-22T20:23:10.802Z,19.00
2023-04-22T20:25:44.662Z,18.60
2023-04-22T20:28:11.889Z,18.50
2023-04-22T20:30:39.313Z,17.80
2023-04-22T20:33:06.634Z,17.70
2023-04-22T20:35:35.922Z,17.60
2023-04-22T20:38:03.630Z,17.50
2023-04-22T20:40:30.666Z,17.50
2023-04-22T20:42:59.464Z,17.50
2023-04-22T20:45:27.291Z,17.90
2023-04-22T20:47:54.221Z,17.60
2023-04-22T20:50:21.207Z,17.80
2023-04-22T20:52:49.043Z,18.00
2023-04-22T20:55:17.100Z,17.70
2023-04-22T20:57:44.247Z,17.60
2023-04-22T21:00:11.699Z,17.60
2023-04-22T21:02:40.091Z,17.60
2023-04-22T21:05:07.861Z,17.50
2023-04-22T21:07:37.774Z,17.60
2023-04-22T21:10:05.436Z,17.80
2023-04-22T21:12:33.193Z,17.60
2023-04-22T21:15:00.504Z,17.70
2023-04-22T21:17:31.954Z,17.70
2023-04-22T21:19:59.562Z,17.60
2023-04-22T21:22:26.899Z,17.90
2023-04-22T21:24:54.167Z,18.10
2023-04-22T21:27:22.228Z,17.80
2023-04-22T21:29:50.128Z,17.90
2023-04-22T21:32:20.203Z,17.90
2023-04-22T21:34:47.159Z,17.90
2023-04-22T21:37:14.111Z,18.00
2023-04-22T21:39:41.062Z,18.00
2023-04-22T21:42:08.609Z,17.70
2023-04-22T21:44:36.829Z,17.40
2023-04-22T21:47:04.630Z,17.10
2023-04-22T21:49:31.639Z,17.30
2023-04-22T21:51:58.928Z,17.20
2023-04-22T21:54:25.651Z,17.20
2023-04-22T21:56:52.474Z,16.90
2023-04-22T21:59:19.351Z,17.10
2023-04-22T22:01:46.155Z,17.10
2023-04-22T22:04:15.684Z,16.90
2023-04-22T22:06:43.871Z,16.90
2023-04-22T22:09:11.594Z,16.80
2023-04-22T22:11:38.377Z,17.00
2023-04-22T22:14:05.207Z,16.90
2023-04-22T22:16:34.585Z,16.80
2023-04-22T22:19:02.878Z,16.80
2023-04-22T22:21:31.343Z,16.70
2023-04-22T22:23:58.388Z,17.00
2023-04-22T22:26:26.187Z,17.20
2023-04-22T22:28:52.992Z,17.00
2023-04-22T22:31:20.038Z,17.10
2023-04-22T22:33:46.968Z,17.10
2023-04-22T22:36:15.218Z,16.90
2023-04-22T22:38:42.064Z,16.50
2023-04-22T22:41:08.958Z,16.50
2023-04-22T22:43:35.679Z,16.80
2023-04-22T22:46:02.801Z,16.50
2023-04-22T22:48:29.746Z,16.50
2023-04-22T22:50:59.328Z,16.80
2023-04-22T22:53:26.071Z,16.60
2023-04-22T22:55:55.375Z,16.60
2023-04-22T22:58:24.155Z,16.60
2023-04-22T23:00:51.327Z,16.90
2023-04-22T23:03:19.897Z,16.60
2023-04-22T23:05:47.077Z,16.60
2023-04-22T23:08:14.839Z,16.60
2023-04-22T23:10:41.671Z,16.50
2023-04-22T23:13:08.461Z,16.40
2023-04-22T23:15:35.282Z,16.80
2023-04-22T23:18:02.445Z,16.80
2023-04-22T23:20:29.961Z,16.70
2023-04-22T23:22:57.831Z,16.70
2023-04-22T23:25:24.927Z,16.50
2023-04-22T23:27:52.891Z,16.50
2023-04-22T23:30:20.227Z,16.30
2023-04-22T23:32:48.581Z,16.50
2023-04-22T23:35:15.573Z,16.50
2023-04-22T23:37:45.723Z,16.30
2023-04-22T23:40:13.278Z,16.30
2023-04-22T23:42:40.012Z,16.40
2023-04-22T23:45:07.381Z,16.50
2023-04-22T23:47:37.414Z,16.60
2023-04-22T23:50:04.879Z,16.30
2023-04-22T23:52:31.632Z,16.40
2023-04-22T23:54:58.680Z,16.60
2023-04-22T23:57:25.749Z,16.50
2023-04-22T23:59:52.731Z,16.20
